sensor_id;sensor_type;location;lat;lon;timestamp;pressure;altitude;pressure_sealevel;temperature;humidity
40998;BME280;26740;45.944;12.480;2022-08-01T00:01:53;101091.84;;;21.85;100.00
40998;BME280;26740;45.944;12.480;2022-08-01T00:04:19;101093.84;;;21.84;100.00
40998;BME280;26740;45.944;12.480;2022-08-01T00:06:45;101085.75;;;21.91;100.00
40998;BME280;26740;45.944;12.480;2022-08-01T00:09:10;101086.91;;;21.90;100.00
40998;BME280;26740;45.944;12.480;2022-08-01T00:11:36;101085.38;;;21.84;100.00
40998;BME280;26740;45.944;12.480;2022-08-01T00:14:02;101086.00;;;21.81;100.00
40998;BME280;26740;45.944;12.480;2022-08-01T00:16:28;101084.81;;;21.73;100.00
40998;BME280;26740;45.944;12.480;2022-08-01T00:18:53;101082.09;;;21.68;100.00
40998;BME280;26740;45.944;12.480;2022-08-01T00:21:19;101086.59;;;21.69;100.00
40998;BME280;26740;45.944;12.480;2022-08-01T00:23:45;101083.47;;;21.71;100.00
40998;BME280;26740;45.944;12.480;2022-08-01T00:26:12;101075.44;;;21.64;100.00
40998;BME280;26740;45.944;12.480;2022-08-01T00:28:38;101077.56;;;21.58;100.00
40998;BME280;26740;45.944;12.480;2022-08-01T00:31:03;101082.69;;;21.56;100.00
40998;BME280;26740;45.944;12.480;2022-08-01T00:33:29;101081.16;;;21.50;100.00
40998;BME280;26740;45.944;12.480;2022-08-01T00:35:55;101076.81;;;21.30;100.00
40998;BME280;26740;45.944;12.480;2022-08-01T00:38:21;101081.41;;;21.26;100.00
40998;BME280;26740;45.944;12.480;2022-08-01T00:40:47;101078.09;;;21.24;100.00
40998;BME280;26740;45.944;12.480;2022-08-01T00:43:14;101081.22;;;21.23;100.00
40998;BME280;26740;45.944;12.480;2022-08-01T00:45:40;101083.72;;;21.24;100.00
40998;BME280;26740;45.944;12.480;2022-08-01T00:48:06;101075.47;;;21.28;100.00
40998;BME280;26740;45.944;12.480;2022-08-01T00:50:31;101081.69;;;21.38;100.00
40998;BME280;26740;45.944;12.480;2022-08-01T00:52:58;101078.97;;;21.33;100.00
40998;BME280;26740;45.944;12.480;2022-08-01T00:55:25;101078.22;;;21.19;100.00
40998;BME280;26740;45.944;12.480;2022-08-01T00:57:51;101078.44;;;21.09;100.00
40998;BME280;26740;45.944;12.480;2022-08-01T01:00:17;101076.78;;;21.08;100.00
40998;BME280;26740;45.944;12.480;2022-08-01T01:02:42;101076.09;;;21.02;100.00
40998;BME280;26740;45.944;12.480;2022-08-01T01:05:09;101082.34;;;20.99;100.00
40998;BME280;26740;45.944;12.480;2022-08-01T01:08:02;101081.13;;;20.91;100.00
40998;BME280;26740;45.944;12.480;2022-08-01T01:13:10;101084.78;;;20.92;100.00
40998;BME280;26740;45.944;12.480;2022-08-01T01:15:49;101083.72;;;20.88;100.00
40998;BME280;26740;45.944;12.480;2022-08-01T01:18:27;101079.75;;;20.89;100.00
40998;BME280;26740;45.944;12.480;2022-08-01T01:21:11;101077.22;;;21.01;100.00
40998;BME280;26740;45.944;12.480;2022-08-01T01:31:51;101083.72;;;20.88;100.00
40998;BME280;26740;45.944;12.480;2022-08-01T01:34:20;101074.84;;;20.80;100.00
40998;BME280;26740;45.944;12.480;2022-08-01T01:36:48;101074.84;;;20.80;100.00
40998;BME280;26740;45.944;12.480;2022-08-01T01:39:16;101071.19;;;20.80;100.00
40998;BME280;26740;45.944;12.480;2022-08-01T01:41:44;101070.56;;;20.83;100.00
40998;BME280;26740;45.944;12.480;2022-08-01T01:44:11;101073.63;;;20.73;100.00
40998;BME280;26740;45.944;12.480;2022-08-01T01:46:37;101072.28;;;20.70;100.00
40998;BME280;26740;45.944;12.480;2022-08-01T01:49:05;101075.09;;;20.70;100.00
40998;BME280;26740;45.944;12.480;2022-08-01T01:54:10;101067.56;;;20.66;100.00
40998;BME280;26740;45.944;12.480;2022-08-01T01:56:37;101076.75;;;20.71;100.00
40998;BME280;26740;45.944;12.480;2022-08-01T01:59:16;101072.69;;;20.63;100.00
40998;BME280;26740;45.944;12.480;2022-08-01T02:01:43;101068.38;;;20.52;100.00
40998;BME280;26740;45.944;12.480;2022-08-01T02:04:11;101076.75;;;20.43;100.00
40998;BME280;26740;45.944;12.480;2022-08-01T02:06:38;101069.84;;;20.36;100.00
40998;BME280;26740;45.944;12.480;2022-08-01T02:09:05;101069.75;;;20.41;100.00
40998;BME280;26740;45.944;12.480;2022-08-01T02:11:33;101067.13;;;20.44;100.00
40998;BME280;26740;45.944;12.480;2022-08-01T02:14:02;101075.09;;;20.42;100.00
40998;BME280;26740;45.944;12.480;2022-08-01T02:16:33;101068.19;;;20.35;100.00
40998;BME280;26740;45.944;12.480;2022-08-01T02:18:59;101071.44;;;20.28;100.00
40998;BME280;26740;45.944;12.480;2022-08-01T02:21:51;101074.34;;;20.23;100.00
40998;BME280;26740;45.944;12.480;2022-08-01T02:27:02;101062.84;;;20.05;100.00
40998;BME280;26740;45.944;12.480;2022-08-01T02:29:41;101072.75;;;20.03;100.00
40998;BME280;26740;45.944;12.480;2022-08-01T02:32:12;101071.31;;;20.05;100.00
40998;BME280;26740;45.944;12.480;2022-08-01T02:34:41;101071.41;;;20.14;100.00
40998;BME280;26740;45.944;12.480;2022-08-01T02:37:09;101072.88;;;20.12;100.00
40998;BME280;26740;45.944;12.480;2022-08-01T02:39:36;101067.88;;;20.08;100.00
40998;BME280;26740;45.944;12.480;2022-08-01T02:42:06;101066.59;;;20.01;100.00
40998;BME280;26740;45.944;12.480;2022-08-01T02:44:37;101067.03;;;19.94;100.00
40998;BME280;26740;45.944;12.480;2022-08-01T02:47:04;101068.25;;;19.88;100.00
40998;BME280;26740;45.944;12.480;2022-08-01T02:49:33;101068.56;;;19.86;100.00
40998;BME280;26740;45.944;12.480;2022-08-01T02:52:05;101066.22;;;19.75;100.00
40998;BME280;26740;45.944;12.480;2022-08-01T02:54:32;101066.63;;;19.68;100.00
40998;BME280;26740;45.944;12.480;2022-08-01T02:57:00;101065.16;;;19.70;100.00
40998;BME280;26740;45.944;12.480;2022-08-01T02:59:29;101063.09;;;19.76;100.00
40998;BME280;26740;45.944;12.480;2022-08-01T03:01:57;101064.03;;;19.72;100.00
40998;BME280;26740;45.944;12.480;2022-08-01T03:04:24;101067.53;;;19.63;100.00
40998;BME280;26740;45.944;12.480;2022-08-01T03:06:53;101063.50;;;19.69;100.00
40998;BME280;26740;45.944;12.480;2022-08-01T03:09:21;101064.56;;;19.74;100.00
40998;BME280;26740;45.944;12.480;2022-08-01T03:11:48;101068.72;;;19.76;100.00
40998;BME280;26740;45.944;12.480;2022-08-01T03:14:15;101065.44;;;19.69;100.00
40998;BME280;26740;45.944;12.480;2022-08-01T03:16:44;101068.22;;;19.55;100.00
40998;BME280;26740;45.944;12.480;2022-08-01T03:19:12;101052.56;;;19.49;100.00
40998;BME280;26740;45.944;12.480;2022-08-01T03:21:39;101056.53;;;19.48;100.00
40998;BME280;26740;45.944;12.480;2022-08-01T03:24:06;101059.34;;;19.48;100.00
40998;BME280;26740;45.944;12.480;2022-08-01T03:26:34;101056.09;;;19.41;100.00
40998;BME280;26740;45.944;12.480;2022-08-01T03:29:06;101049.72;;;19.35;100.00
40998;BME280;26740;45.944;12.480;2022-08-01T03:31:36;101053.75;;;19.29;100.00
40998;BME280;26740;45.944;12.480;2022-08-01T03:34:04;101055.50;;;19.25;100.00
40998;BME280;26740;45.944;12.480;2022-08-01T03:36:32;101056.09;;;19.22;100.00
40998;BME280;26740;45.944;12.480;2022-08-01T03:39:02;101051.63;;;19.21;100.00
40998;BME280;26740;45.944;12.480;2022-08-01T03:41:33;101044.94;;;19.17;100.00
40998;BME280;26740;45.944;12.480;2022-08-01T03:44:06;101049.13;;;19.19;100.00
40998;BME280;26740;45.944;12.480;2022-08-01T03:46:40;101046.22;;;19.24;100.00
40998;BME280;26740;45.944;12.480;2022-08-01T03:49:14;101048.13;;;19.29;100.00
40998;BME280;26740;45.944;12.480;2022-08-01T03:51:40;101052.13;;;19.42;100.00
40998;BME280;26740;45.944;12.480;2022-08-01T03:54:07;101049.53;;;19.45;100.00
40998;BME280;26740;45.944;12.480;2022-08-01T03:56:35;101050.59;;;19.49;100.00
40998;BME280;26740;45.944;12.480;2022-08-01T03:59:02;101058.22;;;19.49;100.00
40998;BME280;26740;45.944;12.480;2022-08-01T04:01:28;101066.75;;;19.44;100.00
40998;BME280;26740;45.944;12.480;2022-08-01T04:03:58;101058.38;;;19.39;100.00
40998;BME280;26740;45.944;12.480;2022-08-01T04:06:24;101060.13;;;19.35;100.00
40998;BME280;26740;45.944;12.480;2022-08-01T04:08:50;101067.97;;;19.38;100.00
40998;BME280;26740;45.944;12.480;2022-08-01T04:11:24;101057.41;;;19.29;100.00
40998;BME280;26740;45.944;12.480;2022-08-01T04:13:54;101060.44;;;19.33;100.00
40998;BME280;26740;45.944;12.480;2022-08-01T04:16:21;101062.09;;;19.34;100.00
40998;BME280;26740;45.944;12.480;2022-08-01T04:18:47;101065.69;;;19.40;100.00
40998;BME280;26740;45.944;12.480;2022-08-01T04:21:20;101068.31;;;19.50;100.00
40998;BME280;26740;45.944;12.480;2022-08-01T04:23:49;101071.09;;;19.69;100.00
40998;BME280;26740;45.944;12.480;2022-08-01T04:26:18;101075.38;;;19.66;100.00
40998;BME280;26740;45.944;12.480;2022-08-01T04:28:46;101070.56;;;19.67;100.00
40998;BME280;26740;45.944;12.480;2022-08-01T04:31:16;101074.31;;;19.95;100.00
40998;BME280;26740;45.944;12.480;2022-08-01T04:33:47;101075.50;;;20.36;100.00
40998;BME280;26740;45.944;12.480;2022-08-01T04:36:18;101083.50;;;20.98;100.00
40998;BME280;26740;45.944;12.480;2022-08-01T04:38:48;101087.03;;;21.40;100.00
40998;BME280;26740;45.944;12.480;2022-08-01T04:41:16;101088.63;;;21.77;100.00
40998;BME280;26740;45.944;12.480;2022-08-01T04:43:43;101097.91;;;21.92;100.00
40998;BME280;26740;45.944;12.480;2022-08-01T04:46:09;101091.84;;;22.16;100.00
40998;BME280;26740;45.944;12.480;2022-08-01T04:48:37;101102.06;;;22.26;100.00
40998;BME280;26740;45.944;12.480;2022-08-01T04:51:04;101099.81;;;22.37;100.00
40998;BME280;26740;45.944;12.480;2022-08-01T04:53:30;101101.84;;;22.45;100.00
40998;BME280;26740;45.944;12.480;2022-08-01T04:55:58;101095.53;;;22.57;100.00
40998;BME280;26740;45.944;12.480;2022-08-01T04:58:23;101098.56;;;22.69;100.00
40998;BME280;26740;45.944;12.480;2022-08-01T05:00:49;101091.19;;;23.25;100.00
40998;BME280;26740;45.944;12.480;2022-08-01T05:03:15;101101.44;;;24.09;100.00
40998;BME280;26740;45.944;12.480;2022-08-01T05:05:41;101101.50;;;24.77;100.00
40998;BME280;26740;45.944;12.480;2022-08-01T05:08:07;101096.25;;;25.39;100.00
40998;BME280;26740;45.944;12.480;2022-08-01T05:10:33;101096.16;;;26.02;100.00
40998;BME280;26740;45.944;12.480;2022-08-01T05:12:59;101101.97;;;26.63;100.00
40998;BME280;26740;45.944;12.480;2022-08-01T05:15:25;101110.81;;;27.11;100.00
40998;BME280;26740;45.944;12.480;2022-08-01T05:17:50;101114.34;;;27.20;100.00
40998;BME280;26740;45.944;12.480;2022-08-01T05:20:16;101106.94;;;28.01;100.00
40998;BME280;26740;45.944;12.480;2022-08-01T05:22:42;101092.41;;;28.69;100.00
40998;BME280;26740;45.944;12.480;2022-08-01T05:25:08;101091.00;;;29.30;100.00
40998;BME280;26740;45.944;12.480;2022-08-01T05:27:34;101102.50;;;29.73;100.00
40998;BME280;26740;45.944;12.480;2022-08-01T05:30:08;101095.28;;;29.99;100.00
40998;BME280;26740;45.944;12.480;2022-08-01T05:32:34;101102.47;;;30.58;100.00
40998;BME280;26740;45.944;12.480;2022-08-01T05:35:00;101098.41;;;30.86;100.00
40998;BME280;26740;45.944;12.480;2022-08-01T05:37:26;101101.72;;;30.88;100.00
40998;BME280;26740;45.944;12.480;2022-08-01T05:39:51;101093.47;;;31.40;100.00
40998;BME280;26740;45.944;12.480;2022-08-01T05:42:17;101101.19;;;31.63;100.00
40998;BME280;26740;45.944;12.480;2022-08-01T05:44:42;101109.13;;;31.77;78.75
40998;BME280;26740;45.944;12.480;2022-08-01T05:47:08;101104.09;;;32.04;72.76
40998;BME280;26740;45.944;12.480;2022-08-01T05:49:34;101103.75;;;32.05;67.35
40998;BME280;26740;45.944;12.480;2022-08-01T05:51:59;101108.53;;;32.35;67.73
40998;BME280;26740;45.944;12.480;2022-08-01T05:54:27;101103.69;;;32.43;68.77
40998;BME280;26740;45.944;12.480;2022-08-01T05:56:53;101101.28;;;32.52;67.36
40998;BME280;26740;45.944;12.480;2022-08-01T05:59:20;101107.63;;;32.68;66.40
40998;BME280;26740;45.944;12.480;2022-08-01T06:01:45;101099.91;;;32.83;69.93
40998;BME280;26740;45.944;12.480;2022-08-01T06:04:11;101101.06;;;33.34;64.31
40998;BME280;26740;45.944;12.480;2022-08-01T06:06:37;101109.50;;;33.79;64.07
40998;BME280;26740;45.944;12.480;2022-08-01T06:09:02;101116.63;;;34.25;60.28
40998;BME280;26740;45.944;12.480;2022-08-01T06:11:28;101111.31;;;34.73;62.53
40998;BME280;26740;45.944;12.480;2022-08-01T06:13:54;101112.09;;;35.03;55.17
40998;BME280;26740;45.944;12.480;2022-08-01T06:16:19;101110.22;;;35.70;55.55
40998;BME280;26740;45.944;12.480;2022-08-01T06:18:45;101115.13;;;35.87;51.35
40998;BME280;26740;45.944;12.480;2022-08-01T06:21:11;101111.81;;;35.89;50.79
40998;BME280;26740;45.944;12.480;2022-08-01T06:23:37;101119.22;;;35.94;49.57
40998;BME280;26740;45.944;12.480;2022-08-01T06:26:02;101118.69;;;36.13;46.87
40998;BME280;26740;45.944;12.480;2022-08-01T06:28:28;101121.53;;;36.24;47.52
40998;BME280;26740;45.944;12.480;2022-08-01T06:30:55;101119.59;;;36.62;47.45
40998;BME280;26740;45.944;12.480;2022-08-01T06:33:20;101120.75;;;36.09;47.79
40998;BME280;26740;45.944;12.480;2022-08-01T06:35:46;101118.06;;;35.77;49.24
40998;BME280;26740;45.944;12.480;2022-08-01T06:38:12;101120.63;;;36.34;49.76
40998;BME280;26740;45.944;12.480;2022-08-01T06:40:37;101115.47;;;36.00;51.70
40998;BME280;26740;45.944;12.480;2022-08-01T06:43:04;101117.81;;;36.76;49.41
40998;BME280;26740;45.944;12.480;2022-08-01T06:45:29;101120.59;;;36.87;48.14
40998;BME280;26740;45.944;12.480;2022-08-01T06:47:55;101110.69;;;36.88;48.56
40998;BME280;26740;45.944;12.480;2022-08-01T06:50:20;101112.50;;;36.71;45.08
40998;BME280;26740;45.944;12.480;2022-08-01T06:52:46;101114.69;;;36.52;43.89
40998;BME280;26740;45.944;12.480;2022-08-01T06:55:12;101107.16;;;35.10;47.15
40998;BME280;26740;45.944;12.480;2022-08-01T06:57:48;101108.03;;;34.79;48.63
40998;BME280;26740;45.944;12.480;2022-08-01T07:00:15;101112.06;;;35.21;47.93
40998;BME280;26740;45.944;12.480;2022-08-01T07:02:45;101102.41;;;35.78;48.66
40998;BME280;26740;45.944;12.480;2022-08-01T07:05:11;101114.50;;;35.37;47.13
40998;BME280;26740;45.944;12.480;2022-08-01T07:07:37;101114.13;;;35.17;47.61
40998;BME280;26740;45.944;12.480;2022-08-01T07:10:03;101112.94;;;34.89;47.39
40998;BME280;26740;45.944;12.480;2022-08-01T07:12:29;101115.38;;;35.08;47.65
40998;BME280;26740;45.944;12.480;2022-08-01T07:14:55;101113.53;;;35.68;49.35
40998;BME280;26740;45.944;12.480;2022-08-01T07:17:20;101117.00;;;35.17;49.04
40998;BME280;26740;45.944;12.480;2022-08-01T07:19:47;101112.13;;;34.63;49.88
40998;BME280;26740;45.944;12.480;2022-08-01T07:22:12;101113.75;;;34.28;51.94
40998;BME280;26740;45.944;12.480;2022-08-01T07:24:40;101113.34;;;34.66;51.40
40998;BME280;26740;45.944;12.480;2022-08-01T07:27:07;101112.94;;;34.92;50.04
40998;BME280;26740;45.944;12.480;2022-08-01T07:29:33;101111.72;;;34.65;52.71
40998;BME280;26740;45.944;12.480;2022-08-01T07:31:58;101117.47;;;34.40;50.49
40998;BME280;26740;45.944;12.480;2022-08-01T07:34:25;101118.16;;;35.55;50.84
40998;BME280;26740;45.944;12.480;2022-08-01T07:36:52;101118.47;;;35.79;51.71
40998;BME280;26740;45.944;12.480;2022-08-01T07:39:18;101112.47;;;35.12;50.60
40998;BME280;26740;45.944;12.480;2022-08-01T07:41:44;101110.06;;;35.03;48.20
40998;BME280;26740;45.944;12.480;2022-08-01T07:44:10;101096.38;;;35.29;51.74
40998;BME280;26740;45.944;12.480;2022-08-01T07:46:35;101105.31;;;35.71;54.01
40998;BME280;26740;45.944;12.480;2022-08-01T07:49:01;101107.09;;;36.20;48.48
40998;BME280;26740;45.944;12.480;2022-08-01T07:51:27;101107.84;;;36.32;51.13
40998;BME280;26740;45.944;12.480;2022-08-01T07:53:52;101101.13;;;35.82;47.67
40998;BME280;26740;45.944;12.480;2022-08-01T07:56:18;101110.28;;;36.37;48.74
40998;BME280;26740;45.944;12.480;2022-08-01T07:58:44;101101.03;;;36.00;50.00
40998;BME280;26740;45.944;12.480;2022-08-01T08:01:12;101102.00;;;35.76;49.56
40998;BME280;26740;45.944;12.480;2022-08-01T08:03:38;101087.78;;;34.68;51.06
40998;BME280;26740;45.944;12.480;2022-08-01T08:06:03;101090.81;;;35.81;51.90
40998;BME280;26740;45.944;12.480;2022-08-01T08:08:29;101093.25;;;36.46;50.98
40998;BME280;26740;45.944;12.480;2022-08-01T08:10:55;101092.66;;;36.20;49.83
40998;BME280;26740;45.944;12.480;2022-08-01T08:13:21;101099.88;;;35.83;49.57
40998;BME280;26740;45.944;12.480;2022-08-01T08:15:47;101096.19;;;35.79;45.98
40998;BME280;26740;45.944;12.480;2022-08-01T08:18:12;101088.94;;;36.69;46.34
40998;BME280;26740;45.944;12.480;2022-08-01T08:20:38;101090.94;;;35.45;49.64
40998;BME280;26740;45.944;12.480;2022-08-01T08:23:04;101090.56;;;35.36;48.05
40998;BME280;26740;45.944;12.480;2022-08-01T08:25:49;101102.75;;;35.87;50.62
40998;BME280;26740;45.944;12.480;2022-08-01T08:28:15;101094.34;;;36.63;50.22
40998;BME280;26740;45.944;12.480;2022-08-01T08:30:40;101096.84;;;37.06;47.59
40998;BME280;26740;45.944;12.480;2022-08-01T08:33:06;101104.25;;;37.80;49.43
40998;BME280;26740;45.944;12.480;2022-08-01T08:35:31;101096.00;;;37.06;46.91
40998;BME280;26740;45.944;12.480;2022-08-01T08:37:57;101105.63;;;36.95;44.15
40998;BME280;26740;45.944;12.480;2022-08-01T08:40:24;101097.69;;;37.41;45.01
40998;BME280;26740;45.944;12.480;2022-08-01T08:42:54;101103.25;;;37.93;46.36
40998;BME280;26740;45.944;12.480;2022-08-01T08:45:21;101106.78;;;38.05;45.37
40998;BME280;26740;45.944;12.480;2022-08-01T08:47:47;101104.03;;;38.25;46.28
40998;BME280;26740;45.944;12.480;2022-08-01T08:50:15;101108.88;;;38.59;44.07
40998;BME280;26740;45.944;12.480;2022-08-01T08:52:43;101112.28;;;38.77;42.37
40998;BME280;26740;45.944;12.480;2022-08-01T08:55:11;101115.69;;;38.96;41.41
40998;BME280;26740;45.944;12.480;2022-08-01T08:57:43;101115.06;;;39.08;42.25
40998;BME280;26740;45.944;12.480;2022-08-01T09:00:10;101110.53;;;38.56;40.73
40998;BME280;26740;45.944;12.480;2022-08-01T09:02:42;101108.28;;;39.35;40.23
40998;BME280;26740;45.944;12.480;2022-08-01T09:05:09;101108.50;;;38.57;39.13
40998;BME280;26740;45.944;12.480;2022-08-01T09:07:35;101104.84;;;37.98;43.34
40998;BME280;26740;45.944;12.480;2022-08-01T09:10:01;101111.19;;;39.15;42.04
40998;BME280;26740;45.944;12.480;2022-08-01T09:12:26;101107.47;;;39.94;42.56
40998;BME280;26740;45.944;12.480;2022-08-01T09:14:52;101105.47;;;40.08;39.45
40998;BME280;26740;45.944;12.480;2022-08-01T09:17:20;101106.44;;;40.54;40.63
40998;BME280;26740;45.944;12.480;2022-08-01T09:19:51;101111.16;;;40.64;37.22
40998;BME280;26740;45.944;12.480;2022-08-01T09:22:19;101107.22;;;39.85;38.16
40998;BME280;26740;45.944;12.480;2022-08-01T09:25:08;101101.59;;;39.38;42.51
40998;BME280;26740;45.944;12.480;2022-08-01T09:27:36;101098.19;;;40.52;40.82
40998;BME280;26740;45.944;12.480;2022-08-01T09:30:17;101103.94;;;39.83;39.37
40998;BME280;26740;45.944;12.480;2022-08-01T09:32:58;101098.59;;;40.34;39.21
40998;BME280;26740;45.944;12.480;2022-08-01T09:35:34;101095.19;;;40.56;41.39
40998;BME280;26740;45.944;12.480;2022-08-01T09:38:13;101099.31;;;40.06;40.27
40998;BME280;26740;45.944;12.480;2022-08-01T09:40:56;101099.81;;;37.71;42.47
40998;BME280;26740;45.944;12.480;2022-08-01T09:43:27;101101.13;;;38.25;42.00
40998;BME280;26740;45.944;12.480;2022-08-01T09:45:55;101096.97;;;38.97;40.42
40998;BME280;26740;45.944;12.480;2022-08-01T09:48:21;101091.97;;;39.41;40.38
40998;BME280;26740;45.944;12.480;2022-08-01T09:50:49;101088.41;;;39.53;40.49
40998;BME280;26740;45.944;12.480;2022-08-01T09:53:16;101087.28;;;40.40;40.68
40998;BME280;26740;45.944;12.480;2022-08-01T09:55:42;101084.22;;;40.11;40.16
40998;BME280;26740;45.944;12.480;2022-08-01T09:58:10;101091.41;;;38.62;39.61
40998;BME280;26740;45.944;12.480;2022-08-01T10:00:38;101078.69;;;37.40;42.69
40998;BME280;26740;45.944;12.480;2022-08-01T10:03:22;101082.41;;;37.71;46.76
40998;BME280;26740;45.944;12.480;2022-08-01T10:05:48;101081.56;;;39.00;40.38
40998;BME280;26740;45.944;12.480;2022-08-01T10:08:14;101077.34;;;39.85;39.54
40998;BME280;26740;45.944;12.480;2022-08-01T10:10:40;101079.00;;;40.39;38.06
40998;BME280;26740;45.944;12.480;2022-08-01T10:13:06;101076.25;;;40.48;38.17
40998;BME280;26740;45.944;12.480;2022-08-01T10:15:33;101075.63;;;39.87;39.35
40998;BME280;26740;45.944;12.480;2022-08-01T10:18:02;101073.50;;;39.71;40.67
40998;BME280;26740;45.944;12.480;2022-08-01T10:20:31;101070.88;;;37.68;39.41
40998;BME280;26740;45.944;12.480;2022-08-01T10:23:01;101061.09;;;38.40;41.88
40998;BME280;26740;45.944;12.480;2022-08-01T10:25:31;101055.97;;;38.95;43.65
40998;BME280;26740;45.944;12.480;2022-08-01T10:27:59;101057.09;;;39.41;40.39
40998;BME280;26740;45.944;12.480;2022-08-01T10:30:27;101068.44;;;39.35;39.03
40998;BME280;26740;45.944;12.480;2022-08-01T10:32:54;101058.22;;;39.07;38.44
40998;BME280;26740;45.944;12.480;2022-08-01T10:35:21;101057.34;;;39.30;38.20
40998;BME280;26740;45.944;12.480;2022-08-01T10:37:47;101058.09;;;38.71;38.39
40998;BME280;26740;45.944;12.480;2022-08-01T10:40:16;101059.19;;;38.57;35.52
40998;BME280;26740;45.944;12.480;2022-08-01T10:42:43;101061.31;;;38.76;37.34
40998;BME280;26740;45.944;12.480;2022-08-01T10:45:13;101056.25;;;39.04;39.15
40998;BME280;26740;45.944;12.480;2022-08-01T10:47:58;101054.38;;;39.14;41.09
40998;BME280;26740;45.944;12.480;2022-08-01T10:50:38;101055.63;;;39.13;37.58
40998;BME280;26740;45.944;12.480;2022-08-01T10:53:12;101048.31;;;38.61;41.94
40998;BME280;26740;45.944;12.480;2022-08-01T10:56:10;101041.22;;;38.15;40.37
40998;BME280;26740;45.944;12.480;2022-08-01T10:58:38;101050.72;;;37.57;39.56
40998;BME280;26740;45.944;12.480;2022-08-01T11:03:44;101041.19;;;37.87;42.52
40998;BME280;26740;45.944;12.480;2022-08-01T11:06:17;101038.63;;;37.66;44.22
40998;BME280;26740;45.944;12.480;2022-08-01T11:08:53;101037.28;;;37.74;41.93
40998;BME280;26740;45.944;12.480;2022-08-01T11:11:20;101037.31;;;37.70;44.74
40998;BME280;26740;45.944;12.480;2022-08-01T11:16:28;101023.81;;;37.87;46.13
40998;BME280;26740;45.944;12.480;2022-08-01T11:18:54;101020.56;;;38.12;46.04
40998;BME280;26740;45.944;12.480;2022-08-01T11:21:20;101009.50;;;38.51;45.86
40998;BME280;26740;45.944;12.480;2022-08-01T11:23:50;101009.94;;;38.26;40.62
40998;BME280;26740;45.944;12.480;2022-08-01T11:26:21;101016.25;;;38.21;44.47
40998;BME280;26740;45.944;12.480;2022-08-01T11:29:10;100996.53;;;38.36;41.83
40998;BME280;26740;45.944;12.480;2022-08-01T11:31:37;100987.41;;;38.10;49.84
40998;BME280;26740;45.944;12.480;2022-08-01T11:34:03;100991.88;;;37.64;42.37
40998;BME280;26740;45.944;12.480;2022-08-01T11:36:29;100984.25;;;38.01;44.55
40998;BME280;26740;45.944;12.480;2022-08-01T11:41:33;100989.22;;;38.27;40.96
40998;BME280;26740;45.944;12.480;2022-08-01T11:47:01;100982.94;;;38.05;39.32
40998;BME280;26740;45.944;12.480;2022-08-01T11:54:40;100970.63;;;37.98;41.11
40998;BME280;26740;45.944;12.480;2022-08-01T11:57:27;100966.44;;;38.26;38.74
40998;BME280;26740;45.944;12.480;2022-08-01T11:59:58;100954.69;;;38.09;41.58
40998;BME280;26740;45.944;12.480;2022-08-01T12:02:29;100952.63;;;38.57;41.03
40998;BME280;26740;45.944;12.480;2022-08-01T12:07:21;100950.63;;;38.07;42.58
40998;BME280;26740;45.944;12.480;2022-08-01T12:09:48;100950.16;;;37.85;38.76
40998;BME280;26740;45.944;12.480;2022-08-01T12:12:21;100934.41;;;38.33;42.56
40998;BME280;26740;45.944;12.480;2022-08-01T12:14:53;100933.91;;;38.62;42.66
40998;BME280;26740;45.944;12.480;2022-08-01T12:17:27;100940.09;;;37.66;43.25
40998;BME280;26740;45.944;12.480;2022-08-01T12:19:53;100942.78;;;37.22;37.95
40998;BME280;26740;45.944;12.480;2022-08-01T12:22:22;100933.59;;;37.58;38.42
40998;BME280;26740;45.944;12.480;2022-08-01T12:24:48;100923.59;;;37.35;44.60
40998;BME280;26740;45.944;12.480;2022-08-01T12:27:25;100924.63;;;38.00;42.77
40998;BME280;26740;45.944;12.480;2022-08-01T12:29:51;100918.09;;;38.19;40.46
40998;BME280;26740;45.944;12.480;2022-08-01T12:32:29;100926.25;;;38.48;37.95
40998;BME280;26740;45.944;12.480;2022-08-01T12:35:15;100910.97;;;38.00;37.14
40998;BME280;26740;45.944;12.480;2022-08-01T12:37:43;100913.78;;;38.27;39.95
40998;BME280;26740;45.944;12.480;2022-08-01T12:40:11;100906.75;;;38.28;42.69
40998;BME280;26740;45.944;12.480;2022-08-01T12:42:39;100907.50;;;38.09;38.34
40998;BME280;26740;45.944;12.480;2022-08-01T12:45:08;100901.34;;;38.07;38.52
40998;BME280;26740;45.944;12.480;2022-08-01T12:47:38;100908.56;;;37.95;37.50
40998;BME280;26740;45.944;12.480;2022-08-01T12:50:07;100893.06;;;38.29;35.79
40998;BME280;26740;45.944;12.480;2022-08-01T12:52:34;100899.97;;;37.37;38.08
40998;BME280;26740;45.944;12.480;2022-08-01T12:57:32;100895.59;;;36.25;41.10
40998;BME280;26740;45.944;12.480;2022-08-01T13:00:13;100892.81;;;36.87;41.47
40998;BME280;26740;45.944;12.480;2022-08-01T13:02:40;100890.84;;;37.08;42.87
40998;BME280;26740;45.944;12.480;2022-08-01T13:05:07;100884.22;;;36.80;42.71
40998;BME280;26740;45.944;12.480;2022-08-01T13:07:41;100881.19;;;36.91;43.48
40998;BME280;26740;45.944;12.480;2022-08-01T13:10:08;100880.56;;;37.07;43.13
40998;BME280;26740;45.944;12.480;2022-08-01T13:12:35;100887.53;;;36.44;44.80
40998;BME280;26740;45.944;12.480;2022-08-01T13:15:25;100879.03;;;36.64;45.25
40998;BME280;26740;45.944;12.480;2022-08-01T13:17:52;100888.75;;;36.81;43.65
40998;BME280;26740;45.944;12.480;2022-08-01T13:20:32;100883.44;;;36.76;46.53